createdAt,value
2023-05-20T00:00:29.368Z,3.28
2023-05-20T00:02:55.755Z,3.33
2023-05-20T00:05:22.525Z,3.60
2023-05-20T00:07:48.823Z,3.53
2023-05-20T00:10:15.333Z,3.72
2023-05-20T00:12:41.679Z,3.25
2023-05-20T00:15:08.390Z,2.60
2023-05-20T00:17:34.699Z,3.67
2023-05-20T00:20:01.047Z,3.60
2023-05-20T00:22:27.416Z,3.03
2023-05-20T00:24:53.848Z,3.50
2023-05-20T00:27:20.160Z,3.50
2023-05-20T00:29:46.669Z,3.63
2023-05-20T00:32:13.161Z,3.13
2023-05-20T00:34:39.545Z,3.40
2023-05-20T00:37:06.120Z,3.47
2023-05-20T00:39:32.469Z,3.78
2023-05-20T00:42:00.625Z,3.63
2023-05-20T00:44:26.982Z,3.70
2023-05-20T00:46:53.960Z,3.50
2023-05-20T00:49:20.855Z,3.60
2023-05-20T00:51:47.371Z,3.60
2023-05-20T00:54:13.703Z,3.20
2023-05-20T00:56:41.111Z,3.42
2023-05-20T00:59:07.926Z,3.85
2023-05-20T01:01:34.473Z,3.30
2023-05-20T01:04:00.808Z,3.85
2023-05-20T01:06:28.218Z,3.28
2023-05-20T01:08:54.664Z,3.63
2023-05-20T01:11:26.071Z,3.85
2023-05-20T01:13:55.187Z,3.22
2023-05-20T01:16:24.433Z,3.90
2023-05-20T01:18:52.146Z,3.22
2023-05-20T01:21:18.564Z,3.15
2023-05-20T01:23:45.517Z,3.47
2023-05-20T01:26:14.758Z,3.88
2023-05-20T01:28:43.472Z,2.83
2023-05-20T01:31:13.263Z,3.38
2023-05-20T01:33:41.110Z,3.53
2023-05-20T01:36:08.468Z,3.42
2023-05-20T01:38:35.892Z,3.58
2023-05-20T01:41:02.782Z,3.55
2023-05-20T01:43:29.102Z,3.70
2023-05-20T01:45:55.414Z,4.35
2023-05-20T01:48:21.790Z,3.92
2023-05-20T01:50:48.120Z,3.58
2023-05-20T01:53:14.578Z,3.60
2023-05-20T01:55:40.888Z,3.60
2023-05-20T01:58:07.223Z,3.15
2023-05-20T02:00:34.213Z,3.60
2023-05-20T02:03:00.731Z,3.45
2023-05-20T02:05:27.095Z,3.22
2023-05-20T02:07:53.459Z,3.97
2023-05-20T02:10:19.790Z,3.30
2023-05-20T02:12:47.862Z,3.53
2023-05-20T02:15:14.199Z,3.88
2023-05-20T02:17:40.583Z,3.67
2023-05-20T02:20:07.739Z,3.33
2023-05-20T02:22:34.095Z,3.75
2023-05-20T02:25:00.401Z,3.70
2023-05-20T02:27:26.663Z,3.97
2023-05-20T02:29:52.997Z,3.45
2023-05-20T02:32:20.664Z,3.83
2023-05-20T02:34:47.021Z,4.13
2023-05-20T02:37:13.294Z,3.63
2023-05-20T02:39:39.586Z,3.70
2023-05-20T02:42:06.198Z,4.30
2023-05-20T02:44:32.609Z,3.47
2023-05-20T02:46:58.929Z,3.72
2023-05-20T02:49:25.340Z,4.25
2023-05-20T02:51:51.630Z,3.53
2023-05-20T02:54:18.125Z,4.10
2023-05-20T02:56:44.501Z,3.78
2023-05-20T02:59:11.123Z,4.20
2023-05-20T03:01:37.540Z,3.88
2023-05-20T03:04:04.616Z,3.78
2023-05-20T03:06:31.970Z,3.67
2023-05-20T03:08:58.807Z,3.75
2023-05-20T03:11:25.819Z,3.65
2023-05-20T03:13:52.194Z,4.07
2023-05-20T03:16:18.838Z,3.92
2023-05-20T03:18:46.233Z,4.32
2023-05-20T03:21:12.575Z,3.97
2023-05-20T03:23:38.892Z,4.05
2023-05-20T03:26:06.751Z,4.25
2023-05-20T03:28:33.108Z,4.10
2023-05-20T03:31:03.203Z,3.58
2023-05-20T03:33:29.942Z,4.05
2023-05-20T03:35:56.235Z,3.70
2023-05-20T03:38:22.510Z,4.32
2023-05-20T03:40:48.793Z,3.67
2023-05-20T03:43:15.062Z,3.90
2023-05-20T03:45:41.353Z,4.05
2023-05-20T03:48:07.728Z,3.83
2023-05-20T03:50:34.101Z,3.85
2023-05-20T03:53:00.416Z,3.80
2023-05-20T03:55:27.853Z,4.15
2023-05-20T03:57:54.927Z,4.47
2023-05-20T04:00:21.283Z,4.00
2023-05-20T04:02:48.094Z,4.13
2023-05-20T04:05:14.549Z,3.78
2023-05-20T04:07:41.180Z,3.65
2023-05-20T04:10:08.019Z,4.00
2023-05-20T04:12:36.028Z,3.90
2023-05-20T04:15:02.559Z,3.72
2023-05-20T04:17:30.125Z,4.00
2023-05-20T04:19:57.630Z,4.18
2023-05-20T04:22:23.926Z,4.03
2023-05-20T04:24:50.269Z,3.92
2023-05-20T04:27:16.983Z,3.97
2023-05-20T04:29:45.964Z,4.18
2023-05-20T04:32:18.602Z,3.85
2023-05-20T04:34:45.565Z,4.07
2023-05-20T04:37:13.126Z,3.88
2023-05-20T04:39:40.182Z,4.40
2023-05-20T04:42:06.561Z,4.68
2023-05-20T04:44:32.883Z,4.50
2023-05-20T04:46:59.495Z,4.05
2023-05-20T04:49:25.949Z,4.20
2023-05-20T04:51:52.849Z,4.65
2023-05-20T04:54:20.315Z,4.13
2023-05-20T04:56:46.961Z,4.05
2023-05-20T04:59:13.696Z,4.07
2023-05-20T05:01:40.080Z,4.97
2023-05-20T05:04:06.458Z,4.32
2023-05-20T05:06:32.826Z,4.32
2023-05-20T05:08:59.176Z,4.10
2023-05-20T05:11:26.382Z,4.28
2023-05-20T05:13:52.724Z,4.38
2023-05-20T05:16:19.068Z,4.45
2023-05-20T05:18:45.529Z,3.22
2023-05-20T05:21:11.917Z,3.95
2023-05-20T05:23:38.366Z,3.88
2023-05-20T05:26:04.720Z,3.55
2023-05-20T05:28:31.062Z,4.43
2023-05-20T05:30:57.393Z,4.13
2023-05-20T05:33:23.809Z,3.63
2023-05-20T05:35:50.676Z,4.00
2023-05-20T05:38:17.166Z,3.67
2023-05-20T05:40:43.499Z,3.70
2023-05-20T05:43:09.847Z,3.90
2023-05-20T05:45:36.129Z,4.22
2023-05-20T05:48:02.449Z,3.40
2023-05-20T05:50:28.835Z,3.72
2023-05-20T05:52:55.162Z,4.00
2023-05-20T05:55:23.732Z,3.72
2023-05-20T05:57:50.037Z,3.30
2023-05-20T06:00:16.560Z,3.85
2023-05-20T06:02:43.006Z,3.92
2023-05-20T06:05:09.721Z,3.50
2023-05-20T06:07:36.161Z,3.50
2023-05-20T06:10:02.657Z,3.35
2023-05-20T06:12:28.979Z,3.72
2023-05-20T06:14:55.270Z,3.88
2023-05-20T06:17:21.599Z,3.78
2023-05-20T06:19:48.013Z,4.00
2023-05-20T06:22:14.388Z,3.28
2023-05-20T06:24:41.247Z,3.42
2023-05-20T06:27:07.588Z,3.33
2023-05-20T06:29:33.945Z,3.65
2023-05-20T06:32:00.437Z,2.85
2023-05-20T06:34:26.776Z,3.33
2023-05-20T06:36:53.359Z,3.38
2023-05-20T06:39:19.865Z,3.60
2023-05-20T06:41:46.200Z,3.22
2023-05-20T06:44:12.712Z,3.30
2023-05-20T06:46:39.089Z,2.83
2023-05-20T06:49:05.633Z,3.17
2023-05-20T06:51:31.964Z,3.13
2023-05-20T06:53:58.231Z,3.38
2023-05-20T06:56:24.549Z,3.13
2023-05-20T06:58:50.945Z,2.72
2023-05-20T07:01:18.364Z,2.75
2023-05-20T07:03:44.966Z,3.08
2023-05-20T07:06:11.597Z,3.25
2023-05-20T07:08:37.969Z,3.08
2023-05-20T07:11:04.357Z,3.03
2023-05-20T07:13:31.017Z,3.10
2023-05-20T07:15:57.362Z,2.53
2023-05-20T07:18:23.726Z,2.80
2023-05-20T07:20:50.079Z,3.00
2023-05-20T07:23:16.352Z,2.92
2023-05-20T07:25:42.741Z,2.78
2023-05-20T07:28:09.084Z,2.80
2023-05-20T07:30:35.412Z,2.22
2023-05-20T07:33:01.820Z,2.33
2023-05-20T07:35:28.152Z,2.67
2023-05-20T07:37:54.507Z,2.20
2023-05-20T07:40:20.846Z,2.50
2023-05-20T07:42:47.154Z,2.60
2023-05-20T07:45:13.413Z,2.67
2023-05-20T07:47:39.949Z,2.40
2023-05-20T07:50:06.629Z,2.30
2023-05-20T07:52:43.975Z,1.90
2023-05-20T07:55:19.310Z,2.13
2023-05-20T07:57:45.597Z,1.80
2023-05-20T08:00:12.216Z,1.60
2023-05-20T08:02:39.339Z,1.35
2023-05-20T08:05:06.142Z,1.77
2023-05-20T08:07:32.444Z,1.77
2023-05-20T08:09:58.865Z,1.40
2023-05-20T08:12:25.197Z,1.60
2023-05-20T08:14:51.546Z,1.50
2023-05-20T08:17:18.002Z,1.70
2023-05-20T08:19:44.455Z,1.35
2023-05-20T08:22:10.845Z,2.00
2023-05-20T08:24:37.132Z,1.50
2023-05-20T08:27:04.270Z,1.30
2023-05-20T08:29:30.851Z,1.20
2023-05-20T08:31:57.380Z,1.67
2023-05-20T08:34:23.729Z,1.50
2023-05-20T08:36:50.424Z,1.73
2023-05-20T08:39:16.814Z,1.30
2023-05-20T08:41:43.139Z,1.60
2023-05-20T08:44:10.943Z,1.80
2023-05-20T08:46:38.390Z,1.67
2023-05-20T08:49:04.803Z,1.30
2023-05-20T08:51:32.671Z,1.50
2023-05-20T08:54:02.537Z,1.48
2023-05-20T08:56:31.010Z,1.35
2023-05-20T08:58:57.520Z,1.85
2023-05-20T09:01:24.890Z,1.35
2023-05-20T09:03:51.570Z,2.00
2023-05-20T09:06:20.297Z,1.65
2023-05-20T09:08:48.916Z,1.58
2023-05-20T09:11:15.254Z,1.60
2023-05-20T09:13:41.546Z,1.50
2023-05-20T09:16:09.778Z,1.70
2023-05-20T09:18:38.380Z,1.40
2023-05-20T09:21:06.952Z,1.20
2023-05-20T09:23:33.412Z,3.47
2023-05-20T09:26:01.430Z,1.88
2023-05-20T09:28:27.775Z,1.70
2023-05-20T09:31:00.674Z,1.70
2023-05-20T09:33:27.974Z,1.52
2023-05-20T09:36:01.697Z,1.40
2023-05-20T09:38:29.791Z,1.83
2023-05-20T09:40:56.272Z,1.80
2023-05-20T09:43:23.076Z,1.25
2023-05-20T09:45:49.713Z,1.90
2023-05-20T09:48:16.305Z,1.95
2023-05-20T09:50:42.621Z,1.45
2023-05-20T09:53:10.101Z,1.60
2023-05-20T09:55:37.026Z,1.65
2023-05-20T09:58:03.556Z,1.90
2023-05-20T10:00:30.085Z,1.80
2023-05-20T10:02:57.193Z,1.75
2023-05-20T10:05:25.780Z,1.60
2023-05-20T10:08:11.063Z,1.30
2023-05-20T10:10:40.559Z,1.73
2023-05-20T10:13:25.071Z,1.50
2023-05-20T10:15:54.549Z,1.40
2023-05-20T10:18:20.903Z,1.80
2023-05-20T10:20:48.019Z,1.25
2023-05-20T10:23:24.477Z,1.55
2023-05-20T10:25:52.454Z,1.50
2023-05-20T10:28:27.729Z,1.63
2023-05-20T10:30:54.040Z,1.42
2023-05-20T10:33:20.862Z,1.55
2023-05-20T10:35:50.115Z,1.67
2023-05-20T10:38:16.649Z,1.67
2023-05-20T10:40:42.928Z,1.52
2023-05-20T10:43:13.172Z,1.80
2023-05-20T10:48:05.804Z,1.40
2023-05-20T10:50:36.747Z,1.35
2023-05-20T10:53:08.251Z,1.45
2023-05-20T10:55:40.692Z,1.40
2023-05-20T10:58:07.440Z,1.80
2023-05-20T11:00:37.813Z,1.38
2023-05-20T11:03:07.829Z,1.73
2023-05-20T11:05:34.446Z,1.50
2023-05-20T11:08:10.749Z,1.65
2023-05-20T11:10:46.817Z,1.50
2023-05-20T11:13:14.206Z,1.27
2023-05-20T11:15:41.300Z,1.45
2023-05-20T11:18:07.892Z,1.40
2023-05-20T11:20:35.349Z,2.10
2023-05-20T11:23:03.347Z,1.45
2023-05-20T11:25:29.856Z,1.30
2023-05-20T11:27:56.708Z,1.27
2023-05-20T11:30:23.187Z,1.67
2023-05-20T11:32:59.224Z,1.38
2023-05-20T11:35:27.123Z,1.50
2023-05-20T11:38:03.742Z,1.90
2023-05-20T11:40:39.027Z,1.55
2023-05-20T11:43:13.826Z,1.60
2023-05-20T11:45:41.417Z,1.25
2023-05-20T11:48:08.157Z,1.48
2023-05-20T11:50:41.042Z,1.60
2023-05-20T11:53:09.655Z,1.60
2023-05-20T11:55:48.934Z,1.45
2023-05-20T11:58:16.203Z,1.70
2023-05-20T12:00:50.644Z,1.48
2023-05-20T12:03:19.564Z,1.65
2023-05-20T12:05:47.708Z,1.65
2023-05-20T12:08:14.365Z,1.70
2023-05-20T12:10:40.798Z,2.08
2023-05-20T12:13:08.857Z,1.40
2023-05-20T12:15:36.297Z,1.30
2023-05-20T12:18:03.015Z,1.38
2023-05-20T12:20:30.889Z,1.95
2023-05-20T12:22:57.662Z,1.50
2023-05-20T12:25:24.075Z,1.45
2023-05-20T12:27:50.419Z,1.30
2023-05-20T12:30:17.625Z,1.30
2023-05-20T12:32:44.026Z,1.67
2023-05-20T12:35:10.654Z,1.67
2023-05-20T12:37:37.921Z,1.50
2023-05-20T12:40:08.445Z,1.50
2023-05-20T12:42:38.651Z,1.15
2023-05-20T12:47:34.402Z,1.70
2023-05-20T12:50:01.292Z,1.20
2023-05-20T12:52:27.881Z,1.70
2023-05-20T12:54:55.042Z,1.42
2023-05-20T12:57:21.688Z,1.30
2023-05-20T12:59:47.989Z,1.70
2023-05-20T13:02:14.345Z,1.55
2023-05-20T13:04:40.672Z,1.55
2023-05-20T13:07:07.022Z,1.70
2023-05-20T13:09:34.439Z,1.90
2023-05-20T13:12:01.109Z,1.70
2023-05-20T13:14:27.875Z,1.60
2023-05-20T13:16:55.122Z,1.88
2023-05-20T13:19:25.242Z,1.55
2023-05-20T13:21:54.212Z,1.73
2023-05-20T13:24:22.585Z,1.50
2023-05-20T13:26:49.014Z,1.80
2023-05-20T13:29:15.305Z,1.60
2023-05-20T13:31:42.009Z,1.30
2023-05-20T13:34:08.353Z,1.40
2023-05-20T13:36:34.701Z,1.50
2023-05-20T13:39:01.097Z,1.33
2023-05-20T13:41:27.656Z,1.35
2023-05-20T13:43:53.977Z,1.55
2023-05-20T13:46:20.409Z,1.50
2023-05-20T13:48:46.783Z,1.75
2023-05-20T13:51:13.347Z,1.60
2023-05-20T13:53:39.762Z,1.30
2023-05-20T13:56:09.211Z,1.10
2023-05-20T13:58:36.507Z,1.37
2023-05-20T14:01:04.650Z,1.50
2023-05-20T14:03:33.027Z,1.27
2023-05-20T14:05:59.950Z,1.48
2023-05-20T14:08:26.300Z,1.38
2023-05-20T14:10:55.722Z,1.40
2023-05-20T14:13:22.766Z,1.57
2023-05-20T14:15:50.704Z,1.40
2023-05-20T14:18:20.539Z,1.52
2023-05-20T14:20:46.968Z,1.73
2023-05-20T14:23:13.308Z,1.50
2023-05-20T14:25:40.005Z,1.38
2023-05-20T14:28:06.393Z,1.30
2023-05-20T14:30:32.936Z,1.40
2023-05-20T14:32:59.578Z,1.60
2023-05-20T14:35:26.052Z,1.35
2023-05-20T14:37:52.475Z,1.20
2023-05-20T14:40:19.219Z,1.48
2023-05-20T14:42:46.005Z,1.00
2023-05-20T14:45:12.362Z,1.65
2023-05-20T14:47:40.156Z,1.55
2023-05-20T14:50:07.088Z,1.30
2023-05-20T14:52:33.506Z,1.10
2023-05-20T14:54:59.879Z,1.40
2023-05-20T14:57:26.383Z,1.20
2023-05-20T14:59:52.872Z,1.20
2023-05-20T15:02:19.657Z,1.40
2023-05-20T15:04:47.768Z,1.10
2023-05-20T15:07:15.095Z,1.40
2023-05-20T15:09:41.919Z,1.40
2023-05-20T15:12:09.135Z,1.73
2023-05-20T15:14:35.470Z,1.35
2023-05-20T15:17:01.834Z,1.38
2023-05-20T15:19:28.370Z,1.30
2023-05-20T15:21:54.996Z,1.30
2023-05-20T15:24:22.011Z,1.30
2023-05-20T15:26:48.361Z,1.50
2023-05-20T15:29:14.708Z,1.23
2023-05-20T15:31:41.008Z,1.30
2023-05-20T15:34:07.351Z,1.10
2023-05-20T15:36:33.652Z,1.20
2023-05-20T15:39:00.035Z,1.40
2023-05-20T15:41:26.510Z,1.58
2023-05-20T15:43:52.845Z,1.25
2023-05-20T15:46:19.245Z,1.42
2023-05-20T15:48:45.663Z,1.40
2023-05-20T15:51:12.402Z,1.63
2023-05-20T15:53:40.638Z,1.33
2023-05-20T15:56:07.898Z,1.10
2023-05-20T15:58:34.236Z,1.20
2023-05-20T16:01:00.992Z,1.00
2023-05-20T16:03:27.449Z,1.30
2023-05-20T16:05:53.764Z,1.10
2023-05-20T16:08:20.839Z,1.20
2023-05-20T16:10:47.119Z,0.90
2023-05-20T16:13:13.470Z,1.48
2023-05-20T16:15:39.766Z,1.10
2023-05-20T16:18:06.197Z,1.45
2023-05-20T16:20:32.622Z,1.30
2023-05-20T16:22:59.089Z,1.50
2023-05-20T16:25:25.497Z,1.20
2023-05-20T16:27:51.859Z,1.20
2023-05-20T16:30:18.241Z,1.05
2023-05-20T16:32:44.665Z,1.38
2023-05-20T16:35:11.137Z,1.23
2023-05-20T16:37:37.493Z,1.17
2023-05-20T16:40:04.339Z,1.10
2023-05-20T16:42:30.875Z,1.00
2023-05-20T16:44:57.312Z,1.20
2023-05-20T16:47:23.691Z,1.40
2023-05-20T16:49:50.030Z,1.10
2023-05-20T16:52:16.464Z,1.20
2023-05-20T16:54:42.882Z,1.10
2023-05-20T16:57:11.342Z,1.20
2023-05-20T16:59:37.761Z,1.00
2023-05-20T17:02:04.188Z,1.10
2023-05-20T17:04:30.667Z,1.30
2023-05-20T17:06:57.106Z,1.40
2023-05-20T17:09:23.391Z,1.25
2023-05-20T17:11:50.893Z,1.48
2023-05-20T17:14:17.176Z,1.40
2023-05-20T17:16:43.499Z,1.10
2023-05-20T17:19:09.845Z,1.25
2023-05-20T17:21:36.387Z,1.40
2023-05-20T17:24:02.828Z,1.10
2023-05-20T17:26:29.278Z,1.20
2023-05-20T17:28:55.628Z,1.33
2023-05-20T17:31:21.935Z,1.08
2023-05-20T17:33:48.316Z,1.65
2023-05-20T17:36:16.082Z,1.70
2023-05-20T17:38:42.381Z,1.42
2023-05-20T17:41:08.802Z,1.58
2023-05-20T17:43:35.156Z,1.15
2023-05-20T17:46:01.497Z,1.75
2023-05-20T17:48:27.889Z,1.50
2023-05-20T17:50:54.163Z,1.20
2023-05-20T17:53:22.029Z,1.58
2023-05-20T17:55:49.305Z,1.40
2023-05-20T17:58:15.849Z,1.52
2023-05-20T18:00:42.637Z,1.30
2023-05-20T18:03:09.440Z,1.40
2023-05-20T18:05:36.404Z,1.60
2023-05-20T18:08:03.440Z,1.58
2023-05-20T18:10:29.852Z,1.38
2023-05-20T18:12:56.211Z,1.42
2023-05-20T18:15:22.594Z,1.40
2023-05-20T18:17:48.998Z,1.50
2023-05-20T18:20:15.463Z,1.35
2023-05-20T18:22:45.265Z,1.60
2023-05-20T18:25:14.737Z,2.00
2023-05-20T18:27:41.571Z,2.03
2023-05-20T18:30:08.726Z,2.15
2023-05-20T18:32:35.151Z,1.90
2023-05-20T18:35:01.572Z,1.60
2023-05-20T18:37:28.052Z,1.60
2023-05-20T18:39:54.535Z,1.55
2023-05-20T18:42:20.850Z,1.52
2023-05-20T18:44:47.102Z,1.90
2023-05-20T18:47:13.384Z,1.60
2023-05-20T18:49:39.791Z,1.30
2023-05-20T18:52:06.412Z,2.08
2023-05-20T18:54:32.696Z,1.70
2023-05-20T18:56:59.064Z,2.17
2023-05-20T18:59:25.530Z,1.40
2023-05-20T19:01:51.881Z,1.48
2023-05-20T19:04:18.159Z,1.67
2023-05-20T19:06:44.446Z,1.60
2023-05-20T19:09:10.815Z,1.75
2023-05-20T19:11:37.213Z,1.83
2023-05-20T19:14:04.816Z,1.85
2023-05-20T19:16:31.548Z,1.80
2023-05-20T19:18:58.002Z,1.83
2023-05-20T19:21:24.364Z,1.95
2023-05-20T19:23:50.737Z,1.63
2023-05-20T19:26:17.549Z,1.85
2023-05-20T19:28:43.943Z,1.60
2023-05-20T19:31:10.428Z,1.60
2023-05-20T19:33:36.832Z,1.65
2023-05-20T19:36:03.222Z,1.65
2023-05-20T19:38:29.520Z,1.60
2023-05-20T19:40:56.087Z,1.90
2023-05-20T19:43:23.345Z,2.05
2023-05-20T19:45:49.753Z,1.60
2023-05-20T19:48:16.137Z,1.98
2023-05-20T19:50:42.539Z,1.67
2023-05-20T19:53:08.948Z,1.70
2023-05-20T19:55:37.215Z,1.50
2023-05-20T19:58:03.879Z,2.05
2023-05-20T20:00:30.324Z,1.65
2023-05-20T20:02:57.096Z,2.00
2023-05-20T20:05:25.684Z,2.03
2023-05-20T20:07:52.256Z,1.75
2023-05-20T20:10:18.604Z,1.67
2023-05-20T20:12:44.974Z,2.00
2023-05-20T20:15:11.512Z,1.65
2023-05-20T20:17:38.097Z,1.95
2023-05-20T20:20:10.159Z,1.80
2023-05-20T20:22:36.436Z,2.15
2023-05-20T20:25:03.597Z,1.73
2023-05-20T20:27:29.923Z,2.10
2023-05-20T20:29:56.217Z,1.80
2023-05-20T20:32:23.866Z,1.77
2023-05-20T20:34:51.195Z,1.85
2023-05-20T20:37:17.815Z,1.85
2023-05-20T20:39:48.155Z,1.58
2023-05-20T20:42:14.778Z,2.25
2023-05-20T20:44:42.600Z,1.80
2023-05-20T20:47:09.828Z,1.83
2023-05-20T20:49:36.448Z,1.95
2023-05-20T20:52:03.233Z,2.05
2023-05-20T20:54:29.540Z,1.95
2023-05-20T20:56:56.596Z,2.10
2023-05-20T20:59:26.756Z,1.95
2023-05-20T21:01:53.250Z,1.90
2023-05-20T21:04:19.870Z,1.80
2023-05-20T21:06:46.314Z,1.83
2023-05-20T21:09:16.078Z,2.00
2023-05-20T21:11:42.507Z,1.83
2023-05-20T21:14:09.240Z,2.05
2023-05-20T21:16:35.628Z,2.00
2023-05-20T21:19:02.082Z,2.17
2023-05-20T21:21:28.556Z,1.90
2023-05-20T21:23:56.477Z,2.33
2023-05-20T21:26:24.513Z,1.90
2023-05-20T21:28:53.607Z,1.70
2023-05-20T21:31:20.106Z,1.75
2023-05-20T21:33:46.562Z,2.03
2023-05-20T21:36:12.938Z,2.00
2023-05-20T21:38:39.837Z,1.85
2023-05-20T21:41:06.270Z,2.00
2023-05-20T21:43:32.660Z,2.20
2023-05-20T21:45:59.015Z,1.92
2023-05-20T21:48:25.509Z,1.55
2023-05-20T21:50:51.853Z,1.70
2023-05-20T21:53:18.499Z,1.75
2023-05-20T21:55:44.972Z,1.92
2023-05-20T21:58:11.390Z,1.90
2023-05-20T22:00:37.725Z,2.17
2023-05-20T22:03:04.151Z,2.22
2023-05-20T22:05:30.595Z,1.75
2023-05-20T22:07:56.964Z,2.22
2023-05-20T22:10:23.799Z,2.00
2023-05-20T22:12:50.915Z,1.88
2023-05-20T22:15:17.522Z,2.13
2023-05-20T22:17:44.649Z,2.30
2023-05-20T22:20:11.490Z,1.88
2023-05-20T22:22:39.132Z,2.20
2023-05-20T22:25:06.345Z,2.30
2023-05-20T22:27:33.270Z,1.88
2023-05-20T22:29:59.727Z,2.20
2023-05-20T22:32:26.126Z,1.80
2023-05-20T22:34:53.454Z,1.90
2023-05-20T22:37:20.756Z,2.00
2023-05-20T22:39:47.028Z,2.00
2023-05-20T22:42:13.337Z,2.08
2023-05-20T22:44:39.690Z,2.40
2023-05-20T22:47:06.114Z,1.90
2023-05-20T22:49:32.656Z,2.10
2023-05-20T22:51:59.314Z,1.85
2023-05-20T22:54:26.061Z,1.95
2023-05-20T22:56:59.095Z,2.00
2023-05-20T22:59:26.089Z,2.58
2023-05-20T23:01:52.573Z,2.45
2023-05-20T23:04:18.972Z,2.45
2023-05-20T23:06:45.634Z,2.40
2023-05-20T23:09:12.477Z,2.30
2023-05-20T23:11:39.221Z,1.95
2023-05-20T23:14:05.905Z,2.70
2023-05-20T23:16:32.249Z,2.08
2023-05-20T23:18:58.586Z,2.40
2023-05-20T23:21:24.919Z,2.35
2023-05-20T23:23:51.245Z,2.30
2023-05-20T23:26:17.574Z,2.47
2023-05-20T23:28:43.880Z,2.53
2023-05-20T23:31:10.213Z,2.42
2023-05-20T23:33:36.616Z,2.42
2023-05-20T23:36:03.267Z,2.50
2023-05-20T23:38:30.481Z,2.60
2023-05-20T23:40:57.211Z,2.28
2023-05-20T23:43:23.633Z,2.42
2023-05-20T23:45:50.008Z,2.60
2023-05-20T23:48:17.803Z,2.17
2023-05-20T23:50:44.322Z,2.15
2023-05-20T23:53:10.628Z,2.22
2023-05-20T23:55:37.476Z,2.30
2023-05-20T23:58:03.985Z,2.15
